Weather at Winchester Ranch Airport

Public forecast

Using degrees Fahrenheit for public forecast. Weather courtesy of forecast.io.

Closest aviation weather report (METAR) to Winchester Ranch Airport

Closest report is Ozona Municipal Airport, 24.3 nm (44.9 km) NNW. Retrieved 2022/06/24 22:35 UTC (18 minutes ago):

KOZA 242235Z AUTO 19009G26KT 10SM CLR 37/06 A2992 RMK AO2

Closest aviation forecast (TAF) to Winchester Ranch Airport

Closest forecast is Sonora Municipal Airport, 25.6 nm (47.4 km) ENE. Retrieved 2022/06/24 18:45 UTC (4 hours ago):

TAF KSOA 241742Z 2418/2518 17010G16KT P6SM SKC FM242300 17006KT P6SM SKC